Terminal Aerodrome Forecast
Issued by NWS

Current Version | Previous Version | Text Only | Print | Product List | Glossary On
Versions: 1 2 3 4 5 6 7 8 9 10 11 12 13 14 15 16 17
000
FTUS43 KJKL 202300
TAFSME
TAF
KSME 202340Z 2100/2124 24005KT P6SM VCSH SCT050 BKN100
     FM210700 VRB03KT P6SM VCSH BKN025
     FM210900 00000KT 4SM BR OVC015
     FM211700 31006KT P6SM BKN050=

USA.gov is the U.S. government's official web portal to all federal, state and local government web resources and services.